Sterling, NE (68443)

12:14 AM CDT on October 01, 2016 (GMT -0500)
Tecumseh | | Change Station

Elev 1240 ft 40.38 °N, 96.17 °W | Updated 9 seconds ago

Clear
Clear
52.6 °F
Feels Like 52.6 °F
N
1.0
Wind Variable Wind from ENE

Today
High -- | Low -- °F
--% Chance of Precip.
Yesterday
High -- | Low -- °F
Precip. -- in
Pressure 30.17 in
Visibility 10.0 miles
Clouds Clear
Dew Point 49 °F
Humidity 90%
Rainfall 0.00 in
Snow Depth Not available.
7:22 AM 7:06 PM
New Moon, 0% visible
METAR KBIE 010455Z AUTO 10004KT 10SM CLR 14/11 A3017 RMK AO2 T01380112
Pressure 30.17 in
Visibility 10.0 miles
Clouds Clear
Dew Point 49 °F
Humidity 90%
Rainfall 0.00 in
Snow Depth Not available.
7:22 AM 7:06 PM
New Moon, 0% visible
METAR KBIE 010455Z AUTO 10004KT 10SM CLR 14/11 A3017 RMK AO2 T01380112

10-Day Weather Forecast

Almanac

Astronomy

Oct. 01, 2016 Rise Set
Actual Time
Civil Twilight
Nautical Twilight
Astronomical Twilight
Moon
Length of Visible Light
Length of Day
Tomorrow will be .
, % of the Moon is Illuminated

Today's Extremes

State Highs State Lows

Community

WunderPhotos

Upload Photos

1,942,894 photos uploaded!

WunderBlog® & News

Nearby

Air Quality

  Air Quality AQ Index Pollutant
Not available.

Snow Depth

Station Depth Elevation

Earthquake Activity

City Distance Mag. Time & Date
Minimum magnitude displayed is 2.5.

Coastal Water Temperatures

Place Temperature

Stations

Nearby Weather Stations

Station Location Temp. Windchill Dew Point Humidity Wind Precip. Elev Updated Type
                   

Watches & Warnings

There are currently no watches in effect.